createdAt,value
2019-04-14T00:00:29.296Z,94717.02
2019-04-14T00:03:37.209Z,94856.88
2019-04-14T00:06:09.114Z,94837.08
2019-04-14T00:08:39.470Z,94853.22
2019-04-14T00:11:10.357Z,94848.84
2019-04-14T00:13:41.240Z,94848.14
2019-04-14T00:16:11.732Z,94842.87
2019-04-14T00:18:42.541Z,94849.95
2019-04-14T00:21:12.941Z,94855.81
2019-04-14T00:23:43.458Z,94849.77
2019-04-14T00:26:29.540Z,94846.30
2019-04-14T00:29:19.305Z,94850.63
2019-04-14T00:31:52.164Z,94851.45
2019-04-14T00:34:59.610Z,94848.50
2019-04-14T00:38:08.488Z,94837.01
2019-04-14T00:40:41.056Z,94845.77
2019-04-14T00:43:28.741Z,94850.70
2019-04-14T00:46:01.369Z,94849.70
2019-04-14T00:48:32.038Z,94844.54
2019-04-14T00:51:02.678Z,94843.49
2019-04-14T00:53:32.389Z,94840.64
2019-04-14T00:56:02.073Z,94840.76
2019-04-14T00:58:32.211Z,94836.04
2019-04-14T01:01:02.714Z,94836.39
2019-04-14T01:03:33.051Z,94836.55
2019-04-14T01:06:03.259Z,94830.02
2019-04-14T01:08:33.513Z,94833.51
2019-04-14T01:11:03.134Z,94830.91
2019-04-14T01:13:33.268Z,94827.64
2019-04-14T01:16:09.835Z,94821.63
2019-04-14T01:18:35.082Z,94828.84
2019-04-14T01:21:04.729Z,94826.60
2019-04-14T01:23:34.812Z,94826.49
2019-04-14T01:26:05.045Z,94822.45
2019-04-14T01:28:35.420Z,94821.46
2019-04-14T01:31:05.499Z,94825.03
2019-04-14T01:33:55.532Z,94823.64
2019-04-14T01:36:25.563Z,94824.56
2019-04-14T01:38:55.755Z,94818.87
2019-04-14T01:41:26.057Z,94824.52
2019-04-14T01:43:56.073Z,94822.81
2019-04-14T01:46:28.353Z,94819.69
2019-04-14T01:48:56.881Z,94821.93
2019-04-14T01:51:30.985Z,94815.71
2019-04-14T01:54:02.135Z,94815.71
2019-04-14T01:56:49.272Z,94817.69
2019-04-14T01:59:19.828Z,94821.73
2019-04-14T02:01:56.885Z,94821.93
2019-04-14T02:04:26.749Z,94828.71
2019-04-14T02:06:57.385Z,94824.27
2019-04-14T02:09:27.232Z,94825.52
2019-04-14T02:11:57.432Z,94822.45
2019-04-14T02:14:27.768Z,94820.82
2019-04-14T02:17:00.553Z,94818.31
2019-04-14T02:19:28.556Z,94816.63
2019-04-14T02:22:00.519Z,94816.89
2019-04-14T02:24:30.969Z,94812.75
2019-04-14T02:27:01.263Z,94814.98
2019-04-14T02:29:31.902Z,94809.32
2019-04-14T02:32:43.485Z,94807.00
2019-04-14T02:34:57.217Z,94805.81
2019-04-14T02:40:03.853Z,94805.28
2019-04-14T02:42:46.805Z,94813.95
2019-04-14T02:50:08.002Z,94824.38
2019-04-14T02:52:46.406Z,94822.11
2019-04-14T02:57:43.419Z,94821.84
2019-04-14T03:00:19.766Z,94819.09
2019-04-14T03:02:44.245Z,94814.43
2019-04-14T03:05:17.161Z,94809.70
2019-04-14T03:08:23.627Z,94814.22
2019-04-14T03:10:55.274Z,94789.14
2019-04-14T03:13:21.304Z,94813.86
2019-04-14T03:15:59.027Z,94818.52
2019-04-14T03:21:30.279Z,94822.24
2019-04-14T03:24:07.044Z,94818.30
2019-04-14T03:26:34.005Z,94822.40
2019-04-14T03:29:08.831Z,94816.06
2019-04-14T03:37:31.478Z,94819.20
2019-04-14T03:39:46.129Z,94823.50
2019-04-14T03:45:22.221Z,94807.27
2019-04-14T03:47:24.965Z,94817.84
2019-04-14T03:50:00.948Z,94823.06
2019-04-14T03:52:31.665Z,94820.11
2019-04-14T03:54:52.770Z,94817.63
2019-04-14T03:57:06.290Z,94820.83
2019-04-14T03:59:36.761Z,94821.91
2019-04-14T04:02:07.435Z,94812.34
2019-04-14T04:04:38.042Z,94811.19
2019-04-14T04:07:08.232Z,94813.89
2019-04-14T04:12:57.601Z,94817.78
2019-04-14T04:15:41.220Z,94816.16
2019-04-14T04:18:15.522Z,94817.45
2019-04-14T04:20:50.629Z,94820.73
2019-04-14T04:23:25.016Z,94817.88
2019-04-14T04:25:59.450Z,94820.00
2019-04-14T04:28:36.399Z,94816.12
2019-04-14T04:34:18.816Z,94825.54
2019-04-14T04:36:59.578Z,94830.22
2019-04-14T04:39:38.122Z,94827.41
2019-04-14T04:42:09.162Z,94824.97
2019-04-14T04:44:39.867Z,94835.76
2019-04-14T04:47:09.954Z,94841.25
2019-04-14T04:49:40.456Z,94837.89
2019-04-14T04:52:30.081Z,94841.27
2019-04-14T04:55:00.988Z,94675.72
2019-04-14T04:57:30.703Z,94843.92
2019-04-14T05:00:00.587Z,94845.05
2019-04-14T05:02:30.939Z,94849.20
2019-04-14T05:05:58.510Z,94851.13
2019-04-14T05:08:28.417Z,94846.05
2019-04-14T05:10:59.620Z,94855.63
2019-04-14T05:13:31.373Z,94856.05
2019-04-14T05:16:02.125Z,94861.17
2019-04-14T05:18:31.709Z,94860.86
2019-04-14T05:21:01.798Z,94860.55
2019-04-14T05:23:32.128Z,94857.03
2019-04-14T05:26:02.766Z,94859.16
2019-04-14T05:28:33.153Z,94852.77
2019-04-14T05:31:03.351Z,94861.47
2019-04-14T05:33:53.306Z,94857.66
2019-04-14T05:36:24.187Z,94708.38
2019-04-14T05:38:54.084Z,94866.27
2019-04-14T05:41:24.442Z,94864.36
2019-04-14T05:43:58.399Z,94862.27
2019-04-14T05:46:25.318Z,94864.58
2019-04-14T05:48:55.818Z,94868.16
2019-04-14T05:51:26.396Z,94870.56
2019-04-14T05:53:56.680Z,94865.98
2019-04-14T05:56:27.509Z,94868.33
2019-04-14T05:58:58.001Z,94874.52
2019-04-14T06:01:27.606Z,94877.55
2019-04-14T06:04:16.491Z,94874.05
2019-04-14T06:06:47.751Z,94878.01
2019-04-14T06:09:17.324Z,94876.86
2019-04-14T06:11:46.962Z,94879.86
2019-04-14T06:14:35.881Z,94881.13
2019-04-14T06:17:05.465Z,94807.63
2019-04-14T06:19:54.408Z,94876.93
2019-04-14T06:22:23.887Z,94880.67
2019-04-14T06:24:53.426Z,94876.56
2019-04-14T06:27:22.980Z,94872.19
2019-04-14T06:30:08.944Z,94870.26
2019-04-14T06:32:40.091Z,94866.70
2019-04-14T06:35:27.249Z,94876.24
2019-04-14T06:38:05.857Z,94872.42
2019-04-14T06:40:39.676Z,94872.20
2019-04-14T06:43:11.703Z,94869.89
2019-04-14T06:46:00.412Z,94864.05
2019-04-14T06:48:29.986Z,94728.38
2019-04-14T06:51:18.886Z,94868.86
2019-04-14T06:53:48.448Z,94862.13
2019-04-14T06:56:18.187Z,94860.30
2019-04-14T06:58:47.733Z,94862.56
2019-04-14T07:01:17.225Z,94869.50
2019-04-14T07:03:46.778Z,94859.75
2019-04-14T07:06:16.260Z,94863.83
2019-04-14T07:08:46.665Z,94866.75
2019-04-14T07:11:16.224Z,94871.17
2019-04-14T07:13:48.179Z,94869.86
2019-04-14T07:16:16.965Z,94869.02
2019-04-14T07:18:46.488Z,94880.23
2019-04-14T07:21:16.029Z,94879.68
2019-04-14T07:23:47.226Z,94884.55
2019-04-14T07:26:16.933Z,94870.72
2019-04-14T07:28:56.195Z,94878.69
2019-04-14T07:31:22.268Z,94883.11
2019-04-14T07:33:51.558Z,94879.45
2019-04-14T07:36:23.925Z,94880.89
2019-04-14T07:39:07.778Z,94878.87
2019-04-14T07:41:44.694Z,94871.48
2019-04-14T07:44:15.061Z,94885.25
2019-04-14T07:46:46.306Z,94881.13
2019-04-14T07:49:33.397Z,94877.58
2019-04-14T07:52:05.610Z,94875.73
2019-04-14T07:54:54.633Z,94883.08
2019-04-14T07:57:28.455Z,94887.97
2019-04-14T08:00:08.328Z,94880.23
2019-04-14T08:02:39.467Z,94888.15
2019-04-14T08:05:10.964Z,94880.48
2019-04-14T08:07:40.593Z,94882.08
2019-04-14T08:10:10.723Z,94880.63
2019-04-14T08:12:40.231Z,94879.72
2019-04-14T08:15:10.742Z,94877.38
2019-04-14T08:17:40.312Z,94874.47
2019-04-14T08:20:09.960Z,94884.14
2019-04-14T08:22:39.525Z,94881.64
2019-04-14T08:25:09.134Z,94881.36
2019-04-14T08:27:38.693Z,94880.43
2019-04-14T08:30:09.218Z,94880.16
2019-04-14T08:32:38.707Z,94884.23
2019-04-14T08:35:08.388Z,94878.13
2019-04-14T08:37:37.898Z,94876.95
2019-04-14T08:40:07.791Z,94872.19
2019-04-14T08:42:44.719Z,94873.72
2019-04-14T08:45:15.947Z,94881.95
2019-04-14T08:47:47.103Z,94888.66
2019-04-14T08:50:18.292Z,94887.89
2019-04-14T08:52:52.389Z,94893.55
2019-04-14T08:55:26.369Z,94889.08
2019-04-14T08:57:57.519Z,94885.98
2019-04-14T09:00:29.472Z,94889.98
2019-04-14T09:03:13.629Z,94903.26
2019-04-14T09:05:42.887Z,94905.05
2019-04-14T09:08:14.920Z,94904.81
2019-04-14T09:10:49.104Z,94903.97
2019-04-14T09:13:18.606Z,94901.30
2019-04-14T09:15:48.096Z,94898.86
2019-04-14T09:18:17.611Z,94897.68
2019-04-14T09:20:52.407Z,94900.30
2019-04-14T09:23:18.417Z,94899.50
2019-04-14T09:25:47.919Z,94897.41
2019-04-14T09:28:17.426Z,94898.78
2019-04-14T09:30:46.947Z,94892.53
2019-04-14T09:33:16.428Z,94894.50
2019-04-14T09:35:45.950Z,94895.14
2019-04-14T09:38:15.522Z,94893.09
2019-04-14T09:40:45.035Z,94888.59
2019-04-14T09:43:14.553Z,94888.98
2019-04-14T09:45:44.083Z,94887.47
2019-04-14T09:48:13.682Z,94889.95
2019-04-14T09:50:43.475Z,94888.11
2019-04-14T09:53:13.055Z,94886.14
2019-04-14T09:55:42.554Z,94886.43
2019-04-14T09:58:12.092Z,94888.91
2019-04-14T10:00:41.579Z,94897.14
2019-04-14T10:03:11.803Z,94889.85
2019-04-14T10:05:41.347Z,94884.92
2019-04-14T10:08:10.899Z,94875.35
2019-04-14T10:10:40.417Z,94884.56
2019-04-14T10:13:09.982Z,94878.84
2019-04-14T10:15:40.216Z,94879.73
2019-04-14T10:18:09.722Z,94882.30
2019-04-14T10:20:39.211Z,94878.03
2019-04-14T10:23:08.714Z,94877.73
2019-04-14T10:25:38.238Z,94877.30
2019-04-14T10:28:08.551Z,94872.51
2019-04-14T10:30:38.066Z,94882.66
2019-04-14T10:33:07.552Z,94886.55
2019-04-14T10:35:37.067Z,94885.92
2019-04-14T10:38:06.568Z,94885.00
2019-04-14T10:40:36.966Z,94892.33
2019-04-14T10:43:06.618Z,94890.56
2019-04-14T10:45:36.302Z,94885.16
2019-04-14T10:48:05.970Z,94892.35
2019-04-14T10:50:35.487Z,94892.36
2019-04-14T10:53:06.284Z,94906.19
2019-04-14T10:55:35.835Z,94906.36
2019-04-14T10:58:05.348Z,94906.71
2019-04-14T11:00:34.887Z,94903.78
2019-04-14T11:03:04.673Z,94909.23
2019-04-14T11:05:39.550Z,94906.27
2019-04-14T11:08:09.059Z,94899.09
2019-04-14T11:10:38.570Z,94902.92
2019-04-14T11:13:08.064Z,94907.09
2019-04-14T11:15:37.581Z,94904.21
2019-04-14T11:18:07.077Z,94896.80
2019-04-14T11:20:37.832Z,94895.64
2019-04-14T11:23:07.312Z,94896.51
2019-04-14T11:25:36.893Z,94894.48
2019-04-14T11:28:06.401Z,94895.03
2019-04-14T11:30:35.972Z,94891.22
2019-04-14T11:33:07.104Z,94896.06
2019-04-14T11:35:38.274Z,94904.23
2019-04-14T11:38:10.278Z,94912.63
2019-04-14T11:40:44.331Z,94912.75
2019-04-14T11:43:13.830Z,94916.08
2019-04-14T11:45:43.436Z,94917.64
2019-04-14T11:48:12.976Z,94917.09
2019-04-14T11:50:42.477Z,94914.83
2019-04-14T11:53:12.045Z,94925.16
2019-04-14T11:55:41.568Z,94923.52
2019-04-14T11:58:11.088Z,94925.98
2019-04-14T12:00:42.303Z,94934.97
2019-04-14T12:03:28.997Z,94931.70
2019-04-14T12:06:00.145Z,94937.53
2019-04-14T12:08:47.423Z,94934.54
2019-04-14T12:11:16.939Z,94930.81
2019-04-14T12:13:46.429Z,94938.06
2019-04-14T12:16:15.931Z,94940.18
2019-04-14T12:18:45.438Z,94936.22
2019-04-14T12:21:14.977Z,94933.02
2019-04-14T12:23:44.519Z,94940.70
2019-04-14T12:26:14.029Z,94942.51
2019-04-14T12:28:43.534Z,94943.46
2019-04-14T12:31:13.177Z,94947.41
2019-04-14T12:33:42.691Z,94949.44
2019-04-14T12:36:13.495Z,94955.37
2019-04-14T12:38:42.997Z,94961.61
2019-04-14T12:41:17.705Z,94962.47
2019-04-14T12:44:04.649Z,94961.16
2019-04-14T12:46:47.593Z,94965.27
2019-04-14T12:49:21.346Z,94957.08
2019-04-14T12:51:53.571Z,94964.10
2019-04-14T12:54:23.565Z,94962.92
2019-04-14T12:56:53.066Z,94959.81
2019-04-14T12:59:23.694Z,94958.01
2019-04-14T13:02:11.260Z,94960.63
2019-04-14T13:04:40.914Z,94967.14
2019-04-14T13:07:10.396Z,94965.41
2019-04-14T13:09:40.977Z,94959.00
2019-04-14T13:12:10.621Z,94966.22
2019-04-14T13:14:40.136Z,94961.31
2019-04-14T13:17:09.657Z,94965.72
2019-04-14T13:19:39.145Z,94962.60
2019-04-14T13:22:09.294Z,94973.08
2019-04-14T13:24:38.807Z,94968.35
2019-04-14T13:27:08.296Z,94964.23
2019-04-14T13:29:37.807Z,94970.17
2019-04-14T13:32:07.472Z,94975.02
2019-04-14T13:34:37.509Z,94976.27
2019-04-14T13:37:07.019Z,94972.19
2019-04-14T13:39:36.558Z,94974.99
2019-04-14T13:42:06.146Z,94981.84
2019-04-14T13:44:35.642Z,94974.78
2019-04-14T13:47:05.173Z,94981.41
2019-04-14T13:49:34.750Z,94977.72
2019-04-14T13:52:04.313Z,94979.52
2019-04-14T13:54:34.245Z,94980.19
2019-04-14T13:57:03.740Z,94980.62
2019-04-14T13:59:34.052Z,94988.22
2019-04-14T14:02:03.726Z,94983.38
2019-04-14T14:04:34.450Z,94980.90
2019-04-14T14:07:04.737Z,94988.56
2019-04-14T14:09:34.236Z,94988.97
2019-04-14T14:12:05.448Z,94987.86
2019-04-14T14:14:37.123Z,94990.16
2019-04-14T14:17:24.152Z,94991.59
2019-04-14T14:19:55.270Z,94991.89
2019-04-14T14:22:35.302Z,94993.34
2019-04-14T14:25:06.954Z,94992.30
2019-04-14T14:27:36.451Z,94992.34
2019-04-14T14:30:09.746Z,94999.59
2019-04-14T14:32:39.219Z,95004.03
2019-04-14T14:35:09.545Z,95005.56
2019-04-14T14:37:39.051Z,95011.45
2019-04-14T14:40:08.851Z,95009.34
2019-04-14T14:42:38.688Z,95013.25
2019-04-14T14:45:10.064Z,95007.59
2019-04-14T14:47:41.207Z,95010.11
2019-04-14T14:50:21.202Z,95012.25
2019-04-14T14:52:50.744Z,95002.41
2019-04-14T14:55:20.245Z,95012.83
2019-04-14T14:57:49.789Z,95005.58
2019-04-14T15:00:34.918Z,95010.03
2019-04-14T15:03:04.634Z,95002.03
2019-04-14T15:05:34.131Z,95009.38
2019-04-14T15:08:04.378Z,95009.42
2019-04-14T15:10:33.895Z,95012.25
2019-04-14T15:13:03.384Z,95012.06
2019-04-14T15:15:32.905Z,95022.66
2019-04-14T15:18:02.409Z,95015.73
2019-04-14T15:20:32.361Z,95018.05
2019-04-14T15:23:01.867Z,95020.91
2019-04-14T15:25:31.366Z,95023.87
2019-04-14T15:28:00.886Z,95023.58
2019-04-14T15:30:30.384Z,95019.83
2019-04-14T15:33:00.696Z,95026.05
2019-04-14T15:35:30.230Z,95029.95
2019-04-14T15:37:59.737Z,95032.53
2019-04-14T15:40:29.239Z,95032.66
2019-04-14T15:42:58.747Z,95033.11
2019-04-14T15:45:28.933Z,95035.38
2019-04-14T15:47:59.312Z,95033.41
2019-04-14T15:50:28.800Z,95036.19
2019-04-14T15:52:58.398Z,95039.11
2019-04-14T15:55:28.090Z,95038.52
2019-04-14T15:57:59.238Z,95038.98
2019-04-14T16:00:46.252Z,95040.68
2019-04-14T16:03:20.077Z,95041.50
2019-04-14T16:05:56.863Z,95040.78
2019-04-14T16:08:27.992Z,95042.56
2019-04-14T16:11:04.951Z,95046.52
2019-04-14T16:13:36.164Z,95047.61
2019-04-14T16:16:08.552Z,95055.42
2019-04-14T16:18:46.581Z,95058.52
2019-04-14T16:21:17.219Z,95056.72
2019-04-14T16:23:50.718Z,95058.29
2019-04-14T16:26:20.663Z,95065.50
2019-04-14T16:28:54.765Z,95067.64
2019-04-14T16:31:37.504Z,95070.14
2019-04-14T16:34:17.432Z,95074.89
2019-04-14T16:36:51.331Z,95079.38
2019-04-14T16:39:20.831Z,95080.21
2019-04-14T16:41:50.416Z,95076.42
2019-04-14T16:44:19.899Z,95081.95
2019-04-14T16:46:49.473Z,95082.86
2019-04-14T16:49:19.081Z,95077.05
2019-04-14T16:51:52.641Z,95078.20
2019-04-14T16:54:26.302Z,95089.55
2019-04-14T16:57:12.237Z,95082.14
2019-04-14T16:59:41.774Z,95077.52
2019-04-14T17:02:11.576Z,95082.04
2019-04-14T17:04:41.061Z,95089.61
2019-04-14T17:07:10.606Z,95090.27
2019-04-14T17:09:40.136Z,95091.66
2019-04-14T17:12:09.728Z,95096.32
2019-04-14T17:14:44.266Z,95100.23
2019-04-14T17:17:28.093Z,95100.87
2019-04-14T17:19:59.322Z,95101.00
2019-04-14T17:22:39.215Z,95112.05
2019-04-14T17:25:10.463Z,95113.05
2019-04-14T17:27:47.613Z,95117.97
2019-04-14T17:30:25.942Z,95122.31
2019-04-14T17:33:01.010Z,95127.45
2019-04-14T17:35:32.135Z,95132.56
2019-04-14T17:38:06.364Z,95134.22
2019-04-14T17:40:38.413Z,95135.64
2019-04-14T17:43:21.145Z,95142.27
2019-04-14T17:45:52.269Z,95144.45
2019-04-14T17:48:39.233Z,95150.55
2019-04-14T17:51:27.981Z,95148.79
2019-04-14T17:53:59.165Z,95152.33
2019-04-14T17:56:33.063Z,95155.71
2019-04-14T17:59:20.281Z,95163.14
2019-04-14T18:02:00.199Z,95165.14
2019-04-14T18:04:31.376Z,95165.08
2019-04-14T18:07:02.528Z,95173.95
2019-04-14T18:09:39.443Z,95180.70
2019-04-14T18:12:16.025Z,95184.95
2019-04-14T18:15:01.792Z,95193.62
2019-04-14T18:17:35.881Z,95196.39
2019-04-14T18:20:09.523Z,95203.87
2019-04-14T18:22:39.034Z,95213.05
2019-04-14T18:25:09.572Z,95212.84
2019-04-14T18:27:40.690Z,95226.97
2019-04-14T18:30:12.184Z,95223.55
2019-04-14T18:32:53.560Z,95232.76
2019-04-14T18:35:40.959Z,95227.06
2019-04-14T18:38:17.611Z,95227.77
2019-04-14T18:40:48.763Z,95236.23
2019-04-14T18:43:34.584Z,95240.55
2019-04-14T18:46:05.776Z,95247.14
2019-04-14T18:48:36.898Z,95259.54
2019-04-14T18:51:08.052Z,95256.41
2019-04-14T18:53:40.077Z,95264.14
2019-04-14T18:56:11.239Z,95257.78
2019-04-14T18:58:58.415Z,95270.53
2019-04-14T19:01:30.808Z,95275.59
2019-04-14T19:04:02.295Z,95280.03
2019-04-14T19:06:31.554Z,95280.17
2019-04-14T19:09:01.095Z,95287.79
2019-04-14T19:11:36.326Z,95284.03
2019-04-14T19:14:07.520Z,95289.16
2019-04-14T19:16:41.382Z,95287.23
2019-04-14T19:19:11.796Z,95286.69
2019-04-14T19:21:41.309Z,95291.08
2019-04-14T19:24:10.793Z,95292.44
2019-04-14T19:26:40.330Z,95294.84
2019-04-14T19:29:10.150Z,95299.34
2019-04-14T19:31:40.931Z,95297.48
2019-04-14T19:34:10.429Z,95298.53
2019-04-14T19:36:39.958Z,95300.95
2019-04-14T19:39:13.347Z,95301.78
2019-04-14T19:41:42.918Z,95300.84
2019-04-14T19:44:12.414Z,95310.27
2019-04-14T19:46:42.049Z,95308.62
2019-04-14T19:49:11.568Z,95308.41
2019-04-14T19:51:41.079Z,95310.19
2019-04-14T19:54:10.783Z,95318.98
2019-04-14T19:56:40.456Z,95317.85
2019-04-14T19:59:10.096Z,95324.41
2019-04-14T20:01:39.607Z,95328.30
2019-04-14T20:04:09.103Z,95327.11
2019-04-14T20:06:38.605Z,95324.09
2019-04-14T20:09:08.691Z,95324.45
2019-04-14T20:11:38.308Z,95329.55
2019-04-14T20:14:07.794Z,95326.85
2019-04-14T20:16:41.576Z,95332.83
2019-04-14T20:19:15.347Z,95331.27
2019-04-14T20:21:50.711Z,95337.26
2019-04-14T20:24:21.836Z,95339.34
2019-04-14T20:26:52.985Z,95341.00
2019-04-14T20:29:24.163Z,95343.77
2019-04-14T20:31:55.302Z,95348.71
2019-04-14T20:34:24.794Z,95345.38
2019-04-14T20:36:54.351Z,95343.72
2019-04-14T20:39:25.141Z,95346.71
2019-04-14T20:41:54.732Z,95338.48
2019-04-14T20:44:24.309Z,95354.53
2019-04-14T20:46:53.799Z,95349.27
2019-04-14T20:49:23.345Z,95351.66
2019-04-14T20:51:52.848Z,95348.62
2019-04-14T20:54:22.366Z,95353.38
2019-04-14T20:56:52.042Z,95354.31
2019-04-14T20:59:21.743Z,95359.56
2019-04-14T21:02:08.747Z,95350.00
2019-04-14T21:04:40.135Z,95351.92
2019-04-14T21:07:12.081Z,95353.78
2019-04-14T21:09:49.014Z,95354.46
2019-04-14T21:12:23.283Z,95350.20
2019-04-14T21:15:04.207Z,95343.71
2019-04-14T21:17:37.810Z,95358.86
2019-04-14T21:20:09.037Z,95363.28
2019-04-14T21:22:42.931Z,95368.20
2019-04-14T21:25:12.187Z,95370.44
2019-04-14T21:28:01.245Z,95370.09
2019-04-14T21:30:32.398Z,95370.50
2019-04-14T21:33:01.673Z,95370.64
2019-04-14T21:35:42.911Z,95367.95
2019-04-14T21:38:16.944Z,95369.41
2019-04-14T21:40:48.130Z,95376.86
2019-04-14T21:43:17.843Z,95380.33
2019-04-14T21:45:47.334Z,95380.73
2019-04-14T21:48:16.870Z,95389.34
2019-04-14T21:50:46.380Z,95386.70
2019-04-14T21:53:15.888Z,95393.81
2019-04-14T21:55:45.382Z,95387.27
2019-04-14T21:58:25.496Z,95392.37
2019-04-14T22:01:19.006Z,95386.88
2019-04-14T22:03:56.085Z,95395.92
2019-04-14T22:06:36.049Z,95403.98
2019-04-14T22:09:09.174Z,95402.97
2019-04-14T22:11:39.607Z,95395.36
2019-04-14T22:14:09.126Z,95403.52
2019-04-14T22:16:39.431Z,95405.20
2019-04-14T22:19:09.019Z,95408.86
2019-04-14T22:21:38.505Z,95414.89
2019-04-14T22:24:08.024Z,95420.30
2019-04-14T22:26:37.587Z,95424.20
2019-04-14T22:29:07.654Z,95415.66
2019-04-14T22:31:37.139Z,95415.05
2019-04-14T22:34:06.854Z,95417.27
2019-04-14T22:36:36.341Z,95413.52
2019-04-14T22:39:08.539Z,95416.61
2019-04-14T22:41:40.045Z,95411.73
2019-04-14T22:44:09.310Z,95417.47
2019-04-14T22:46:38.802Z,95414.29
2019-04-14T22:49:08.346Z,95421.73
2019-04-14T22:51:37.885Z,95421.27
2019-04-14T22:54:07.432Z,95422.99
2019-04-14T22:56:39.508Z,95431.20
2019-04-14T22:59:08.211Z,95428.30
2019-04-14T23:01:39.333Z,95428.81
2019-04-14T23:04:18.892Z,95430.33
2019-04-14T23:06:58.971Z,95433.61
2019-04-14T23:09:44.823Z,95433.83
2019-04-14T23:12:18.927Z,95427.80
2019-04-14T23:15:06.047Z,95429.81
2019-04-14T23:17:37.258Z,95428.84
2019-04-14T23:20:17.743Z,95441.52
2019-04-14T23:22:47.030Z,95440.50
2019-04-14T23:25:16.716Z,95445.02
2019-04-14T23:27:46.202Z,95445.64
2019-04-14T23:30:15.974Z,95440.39
2019-04-14T23:32:45.485Z,95445.81
2019-04-14T23:35:15.004Z,95447.01
2019-04-14T23:37:44.491Z,95443.25
2019-04-14T23:40:14.319Z,95451.09
2019-04-14T23:42:43.820Z,95450.16
2019-04-14T23:45:13.460Z,95451.45
2019-04-14T23:47:42.957Z,95454.42
2019-04-14T23:50:12.987Z,95453.42
2019-04-14T23:52:42.938Z,95453.97
2019-04-14T23:55:12.502Z,95455.16
2019-04-14T23:57:42.016Z,95460.58
